Hartford, Connecticut
Traffic Map
Current Weather Conditions
Hartford, Connecticut
Scattered Clouds
Scattered Clouds

Feels Like: 8°
Wind Chill: Ceiling: Unl
Heat Index: Visibility: 9mi
Dew Point: Wind: 0mph
Humidity: 83% Direction: ° ()
Pressure: 30.7in Gusts: 0mph
Raw Report DataKHFD 011053Z 00000KT 9SM SCT120 M13/M16 A3070 RMK AO2 SLP397 T11331156
Traffic Incident Summary
Active as of:
Severity:
Category:
InformationThere was an issue retrieving the traffic information for this location. Please try a different location or try again shortly.
Advertisements
Track Severe Weather on mobile